Time;durP1;ratioP1;P1;durP2;ratioP2;P2;SDS_P1;SDS_P2;PMS_P1;PMS_P2;Temp;Humidity;BMP_temperature;BMP_pressure;BME280_temperature;BME280_humidity;BME280_pressure;Samples;Min_cycle;Max_cycle;Signal;HPM_P1;HPM_P2
2024/04/23 00:01:50;;;;;;;13.03;6.43;;;2.50;99.90;;;;;;5451819;26;20431;-47
2024/04/23 00:04:16;;;;;;;14.53;6.80;;;2.50;99.90;;;;;;5451887;26;19995;-52
2024/04/23 00:06:49;;;;;;;13.93;7.57;;;2.50;99.90;;;;;;5451458;26;19994;-51
2024/04/23 00:09:15;;;;;;;12.50;6.60;;;2.50;99.90;;;;;;5450737;26;20343;-47
2024/04/23 00:11:41;;;;;;;13.87;7.13;;;2.40;99.90;;;;;;5451742;26;20315;-49
2024/04/23 00:14:07;;;;;;;12.50;6.53;;;2.50;99.90;;;;;;5451340;26;20003;-51
2024/04/23 00:16:33;;;;;;;12.90;6.80;;;2.50;99.90;;;;;;5451125;26;20031;-47
2024/04/23 00:18:59;;;;;;;12.63;7.13;;;2.50;99.90;;;;;;5450450;26;20464;-47
2024/04/23 00:21:25;;;;;;;12.00;6.67;;;2.50;99.90;;;;;;5450997;26;20035;-49
2024/04/23 00:23:51;;;;;;;14.60;7.40;;;2.50;99.90;;;;;;5451045;26;19994;-49
2024/04/23 00:26:17;;;;;;;12.07;6.57;;;2.50;99.90;;;;;;5451215;26;19991;-48
2024/04/23 00:28:43;;;;;;;12.50;6.97;;;2.60;99.90;;;;;;5450286;26;19999;-51
2024/04/23 00:31:09;;;;;;;13.27;7.17;;;2.60;99.90;;;;;;5451048;26;19995;-49
2024/04/23 00:33:35;;;;;;;12.23;6.87;;;2.60;99.90;;;;;;5451120;26;20528;-51
2024/04/23 00:36:01;;;;;;;15.47;7.20;;;2.60;99.90;;;;;;5451930;26;19991;-51
2024/04/23 00:38:27;;;;;;;12.40;7.13;;;2.60;99.90;;;;;;5454494;26;20003;-48
2024/04/23 00:40:53;;;;;;;14.57;7.20;;;2.70;99.90;;;;;;5454211;26;20006;-48
2024/04/23 00:43:20;;;;;;;14.30;7.40;;;2.70;99.90;;;;;;5454516;26;20072;-48
2024/04/23 00:45:48;;;;;;;12.00;7.23;;;2.70;99.90;;;;;;5422777;26;20047;-47
2024/04/23 00:48:16;;;;;;;12.77;6.40;;;2.60;99.90;;;;;;5454421;26;20068;-48
2024/04/23 00:50:43;;;;;;;12.73;6.50;;;2.60;99.90;;;;;;5453400;26;19995;-49
2024/04/23 00:53:10;;;;;;;12.77;7.17;;;2.50;99.90;;;;;;5453113;26;20063;-52
2024/04/23 00:55:38;;;;;;;11.57;6.37;;;2.50;99.90;;;;;;5454461;26;20041;-48
2024/04/23 00:58:05;;;;;;;12.80;6.70;;;2.40;99.90;;;;;;5454295;26;20067;-49
2024/04/23 01:00:31;;;;;;;13.47;7.13;;;2.40;99.90;;;;;;5453395;26;19987;-51
2024/04/23 01:02:58;;;;;;;14.20;6.70;;;2.40;99.90;;;;;;5452910;26;19991;-49
2024/04/23 01:05:25;;;;;;;14.60;8.17;;;2.30;99.90;;;;;;5454167;26;20063;-49
2024/04/23 01:07:51;;;;;;;13.27;7.00;;;2.40;99.90;;;;;;5454785;26;20044;-50
2024/04/23 01:10:18;;;;;;;13.27;6.57;;;2.40;99.90;;;;;;5453048;26;20044;-50
2024/04/23 01:12:44;;;;;;;13.53;7.97;;;2.40;99.90;;;;;;5454288;26;19990;-49
2024/04/23 01:15:13;;;;;;;12.27;7.83;;;2.50;99.90;;;;;;5422660;26;20063;-49
2024/04/23 01:17:40;;;;;;;13.75;7.13;;;2.40;99.90;;;;;;5454081;26;19995;-50
2024/04/23 01:20:12;;;;;;;14.47;7.30;;;2.50;99.90;;;;;;5451318;26;19995;-49
2024/04/23 01:22:57;;;;;;;12.27;6.77;;;2.40;99.90;;;;;;5454019;26;19995;-48
2024/04/23 01:25:23;;;;;;;15.27;6.90;;;2.40;99.90;;;;;;5454196;26;20075;-49
2024/04/23 01:27:50;;;;;;;15.50;7.30;;;2.40;99.90;;;;;;5453904;26;20524;-47
2024/04/23 01:30:18;;;;;;;12.47;7.00;;;2.40;99.90;;;;;;5453106;26;19991;-51
2024/04/23 01:32:47;;;;;;;12.13;6.80;;;2.40;99.90;;;;;;5422217;26;20075;-49
2024/04/23 01:35:14;;;;;;;16.20;7.90;;;2.40;99.90;;;;;;5453756;26;20068;-49
2024/04/23 01:37:45;;;;;;;13.97;7.70;;;2.40;99.90;;;;;;5451992;26;20002;-47
2024/04/23 01:40:13;;;;;;;14.47;7.10;;;2.40;99.90;;;;;;5452926;26;20002;-50
2024/04/23 01:42:39;;;;;;;13.07;7.47;;;2.30;99.90;;;;;;5453991;26;19991;-51
2024/04/23 01:45:06;;;;;;;15.47;7.37;;;2.30;99.90;;;;;;5453523;26;20002;-50
2024/04/23 01:47:32;;;;;;;13.03;7.20;;;2.30;99.90;;;;;;5452279;26;19993;-50
2024/04/23 01:49:59;;;;;;;14.83;7.37;;;2.30;99.90;;;;;;5452894;26;20063;-50
2024/04/23 01:52:25;;;;;;;16.53;7.33;;;2.20;99.90;;;;;;5453610;26;19991;-50
2024/04/23 01:54:51;;;;;;;12.80;7.20;;;2.20;99.90;;;;;;5453423;26;19994;-49
2024/04/23 01:57:17;;;;;;;14.13;7.47;;;2.30;99.90;;;;;;5453118;26;20339;-48
2024/04/23 02:00:04;;;;;;;14.33;7.97;;;2.30;99.90;;;;;;5452523;26;20413;-50
2024/04/23 02:02:31;;;;;;;16.80;7.53;;;2.30;99.90;;;;;;5453483;26;20005;-48
2024/04/23 02:04:59;;;;;;;14.83;7.27;;;2.30;99.90;;;;;;5453313;26;20067;-49
2024/04/23 02:07:26;;;;;;;12.13;7.03;;;2.30;99.90;;;;;;5453147;26;20339;-47
2024/04/23 02:09:53;;;;;;;12.87;7.10;;;2.20;99.90;;;;;;5452318;26;20071;-49
2024/04/23 02:12:23;;;;;;;13.10;6.67;;;2.20;99.90;;;;;;5451630;26;19997;-49
2024/04/23 02:14:49;;;;;;;13.10;7.67;;;2.20;99.90;;;;;;5453341;26;20019;-48
2024/04/23 02:17:16;;;;;;;13.13;7.47;;;2.10;99.90;;;;;;5453283;26;20444;-48
2024/04/23 02:19:44;;;;;;;14.37;7.27;;;2.20;99.90;;;;;;5452583;26;20458;-48
2024/04/23 02:22:10;;;;;;;15.07;7.67;;;2.20;99.90;;;;;;5453036;26;20443;-47
2024/04/23 02:24:38;;;;;;;16.00;8.30;;;2.20;99.90;;;;;;5452917;26;20067;-48
2024/04/23 02:27:04;;;;;;;13.73;7.37;;;2.20;99.90;;;;;;5452912;26;19994;-47
2024/04/23 02:29:30;;;;;;;14.30;7.97;;;2.20;99.90;;;;;;5450854;26;20059;-47
2024/04/23 02:32:01;;;;;;;15.03;7.70;;;2.20;99.90;;;;;;5452973;26;19994;-48
2024/04/23 02:34:27;;;;;;;15.97;7.27;;;2.20;99.90;;;;;;5453160;26;20131;-47
2024/04/23 02:36:54;;;;;;;13.07;7.97;;;2.10;99.90;;;;;;5452815;26;20049;-49
2024/04/23 02:39:20;;;;;;;15.83;8.07;;;2.10;99.90;;;;;;5452010;26;19990;-48
2024/04/23 02:41:50;;;;;;;15.57;7.43;;;2.10;99.90;;;;;;5390408;26;20063;-50
2024/04/23 02:44:16;;;;;;;13.77;7.60;;;2.10;99.90;;;;;;5451343;26;19990;-50
2024/04/23 02:46:43;;;;;;;15.00;7.97;;;2.00;99.90;;;;;;5452926;26;20392;-50
2024/04/23 02:49:09;;;;;;;13.47;7.80;;;2.00;99.90;;;;;;5452094;26;20044;-48
2024/04/23 02:51:35;;;;;;;14.47;7.90;;;2.00;99.90;;;;;;5420736;26;19995;-51
2024/04/23 02:54:01;;;;;;;15.20;7.93;;;1.90;99.90;;;;;;5452596;26;20067;-48
2024/04/23 02:56:27;;;;;;;14.10;7.33;;;1.80;99.90;;;;;;5452463;26;20064;-50
2024/04/23 02:58:53;;;;;;;15.20;8.37;;;1.80;99.90;;;;;;5449659;26;19995;-48
2024/04/23 03:01:19;;;;;;;15.17;8.03;;;1.80;99.90;;;;;;5450742;26;20063;-49
2024/04/23 03:03:45;;;;;;;14.83;7.97;;;1.80;99.90;;;;;;5452370;26;20483;-48
2024/04/23 03:06:11;;;;;;;15.67;8.20;;;1.80;99.90;;;;;;5450714;26;20067;-48
2024/04/23 03:08:37;;;;;;;15.43;8.87;;;1.80;99.90;;;;;;5451573;26;19995;-48
2024/04/23 03:11:03;;;;;;;14.40;8.20;;;1.80;99.90;;;;;;5452292;26;19995;-48
2024/04/23 03:13:29;;;;;;;14.20;7.97;;;1.80;99.90;;;;;;5452231;26;19995;-47
2024/04/23 03:15:55;;;;;;;17.63;8.83;;;1.80;99.90;;;;;;5452244;26;20508;-47
2024/04/23 03:18:21;;;;;;;17.83;9.80;;;1.80;99.90;;;;;;5450708;26;19999;-48
2024/04/23 03:20:47;;;;;;;16.87;8.97;;;1.80;99.90;;;;;;5450983;26;20067;-48
2024/04/23 03:23:13;;;;;;;15.40;9.03;;;1.70;99.90;;;;;;5452489;26;19995;-47
2024/04/23 03:25:39;;;;;;;16.63;9.30;;;1.70;99.90;;;;;;5452028;26;19994;-49
2024/04/23 03:28:06;;;;;;;17.03;8.70;;;1.60;99.90;;;;;;5452328;26;20517;-49
2024/04/23 03:30:32;;;;;;;14.50;8.07;;;1.60;99.90;;;;;;5451281;26;20454;-47
2024/04/23 03:32:58;;;;;;;16.43;8.47;;;1.60;99.90;;;;;;5452237;26;20048;-47
2024/04/23 03:35:24;;;;;;;16.90;8.87;;;1.60;99.90;;;;;;5419166;26;19999;-49
2024/04/23 03:37:50;;;;;;;15.47;8.50;;;1.60;99.90;;;;;;5452001;26;19995;-47
2024/04/23 03:40:16;;;;;;;17.03;9.23;;;1.60;99.90;;;;;;5451088;26;19995;-49
2024/04/23 03:42:42;;;;;;;19.13;9.87;;;1.60;99.90;;;;;;5452008;26;19995;-47
2024/04/23 03:45:08;;;;;;;17.77;9.33;;;1.60;99.90;;;;;;5451885;26;20459;-49
2024/04/23 03:47:34;;;;;;;16.60;8.63;;;1.60;99.90;;;;;;5451887;26;19991;-48
2024/04/23 03:50:00;;;;;;;16.60;9.53;;;1.60;99.90;;;;;;5450857;26;19994;-47
2024/04/23 03:52:26;;;;;;;18.07;10.03;;;1.60;99.90;;;;;;5451960;26;20324;-47
2024/04/23 03:54:53;;;;;;;18.03;9.53;;;1.60;99.90;;;;;;5451925;26;20006;-48
2024/04/23 03:57:19;;;;;;;16.80;9.17;;;1.60;99.90;;;;;;5420174;26;19994;-48
2024/04/23 03:59:45;;;;;;;15.60;9.03;;;1.60;99.90;;;;;;5419388;26;20427;-47
2024/04/23 04:07:40;;;;;;;18.77;9.27;;;1.50;99.90;;;;;;5451621;26;19999;-47
2024/04/23 04:10:06;;;;;;;17.87;9.50;;;1.50;99.90;;;;;;5450363;26;21258;-49
2024/04/23 04:12:32;;;;;;;18.00;10.50;;;1.40;99.90;;;;;;5450745;26;20363;-49
2024/04/23 04:14:58;;;;;;;19.60;10.17;;;1.40;99.90;;;;;;5451864;26;20010;-50
2024/04/23 04:17:24;;;;;;;16.13;9.43;;;1.40;99.90;;;;;;5451148;26;20027;-47
2024/04/23 04:19:50;;;;;;;17.60;9.77;;;1.30;99.90;;;;;;5450936;26;20064;-47
2024/04/23 04:22:16;;;;;;;16.83;10.07;;;1.30;99.90;;;;;;5451503;26;19994;-48
2024/04/23 04:24:42;;;;;;;18.70;10.07;;;1.20;99.90;;;;;;5451389;26;19995;-47
2024/04/23 04:27:08;;;;;;;18.93;10.03;;;1.20;99.90;;;;;;5451204;26;20520;-47
2024/04/23 04:29:34;;;;;;;20.13;10.70;;;1.20;99.90;;;;;;5450131;26;20353;-49
2024/04/23 04:32:00;;;;;;;18.40;10.03;;;1.30;99.90;;;;;;5451632;26;19987;-48
2024/04/23 04:34:26;;;;;;;19.70;9.73;;;1.30;99.90;;;;;;5451108;26;20044;-49
2024/04/23 04:36:53;;;;;;;21.13;11.57;;;1.20;99.90;;;;;;5451199;26;20067;-49
2024/04/23 04:39:19;;;;;;;21.67;10.93;;;1.20;99.90;;;;;;5450418;26;20006;-49
2024/04/23 04:41:45;;;;;;;21.57;10.93;;;1.20;99.90;;;;;;5450894;26;19998;-50
2024/04/23 04:44:11;;;;;;;19.57;10.90;;;1.20;99.90;;;;;;5451174;26;20067;-49
2024/04/23 04:46:37;;;;;;;17.80;9.97;;;1.20;99.90;;;;;;5450944;26;20067;-48
2024/04/23 04:49:03;;;;;;;20.07;10.20;;;1.20;99.90;;;;;;5450051;26;19998;-47
2024/04/23 04:51:29;;;;;;;20.43;11.27;;;1.20;99.90;;;;;;5450612;26;20435;-48
2024/04/23 04:53:55;;;;;;;20.53;10.77;;;1.20;99.90;;;;;;5450609;26;19990;-48
2024/04/23 04:56:21;;;;;;;20.93;11.57;;;1.30;99.90;;;;;;5450970;26;20760;-47
2024/04/23 04:58:47;;;;;;;21.63;11.53;;;1.30;99.90;;;;;;5449779;26;19987;-46
2024/04/23 05:01:13;;;;;;;18.23;10.83;;;1.40;99.90;;;;;;5449758;26;20432;-50
2024/04/23 05:03:39;;;;;;;19.70;10.47;;;1.40;99.90;;;;;;5450500;26;19995;-52
2024/04/23 05:06:05;;;;;;;19.87;11.00;;;1.40;99.90;;;;;;5419080;26;19991;-48
2024/04/23 05:08:31;;;;;;;18.77;11.03;;;1.40;99.90;;;;;;5450505;26;19991;-47
2024/04/23 05:10:57;;;;;;;20.03;10.83;;;1.50;99.90;;;;;;5448576;26;20064;-48
2024/04/23 05:13:23;;;;;;;21.90;10.50;;;1.50;99.90;;;;;;5450564;26;19995;-47
2024/04/23 05:15:49;;;;;;;19.60;10.47;;;1.50;99.90;;;;;;5450574;26;20071;-47
2024/04/23 05:18:16;;;;;;;23.03;10.90;;;1.70;99.90;;;;;;5450657;26;19995;-47
2024/04/23 05:20:42;;;;;;;19.40;11.30;;;1.80;99.90;;;;;;5449509;26;19990;-49
2024/04/23 05:23:08;;;;;;;21.87;10.83;;;1.90;99.90;;;;;;5452673;26;20063;-48
2024/04/23 05:25:34;;;;;;;18.33;10.60;;;2.00;99.90;;;;;;5453995;26;19991;-47
2024/04/23 05:28:00;;;;;;;17.97;10.37;;;2.10;99.90;;;;;;5453989;26;20063;-47
2024/04/23 05:33:10;;;;;;;20.17;10.73;;;2.30;99.90;;;;;;5454231;26;20003;-46
2024/04/23 05:35:36;;;;;;;16.50;9.73;;;2.70;99.90;;;;;;5454372;26;20007;-49
2024/04/23 05:38:02;;;;;;;17.70;9.80;;;3.00;99.90;;;;;;5454686;26;19995;-49
2024/04/23 05:40:28;;;;;;;15.57;9.23;;;3.20;99.90;;;;;;5453463;26;20035;-48
2024/04/23 05:42:54;;;;;;;17.07;10.20;;;3.30;99.90;;;;;;5452778;26;20001;-49
2024/04/23 05:45:20;;;;;;;21.00;9.37;;;3.50;99.90;;;;;;5454437;26;20062;-48
2024/04/23 05:48:24;;;;;;;18.67;9.83;;;3.60;99.90;;;;;;5454786;26;19999;-49
2024/04/23 05:51:47;;;;;;;18.30;9.70;;;3.70;99.90;;;;;;5455770;26;20006;-49
2024/04/23 05:55:09;;;;;;;15.60;9.33;;;3.60;99.90;;;;;;5454613;26;20006;-48
2024/04/23 05:57:54;;;;;;;15.80;9.23;;;3.60;99.90;;;;;;5454842;26;20006;-49
2024/04/23 06:00:20;;;;;;;16.27;9.30;;;3.70;99.90;;;;;;5452877;26;20067;-48
2024/04/23 06:02:46;;;;;;;16.97;8.83;;;3.70;99.90;;;;;;5454128;26;19995;-50
2024/04/23 06:05:13;;;;;;;14.80;7.73;;;3.80;99.90;;;;;;5453338;26;19999;-50
2024/04/23 06:07:39;;;;;;;20.43;7.60;;;3.90;99.90;;;;;;5453192;26;20519;-48
2024/04/23 06:10:05;;;;;;;10.97;5.93;;;4.10;99.90;;;;;;5450799;26;19986;-49
2024/04/23 06:12:31;;;;;;;10.47;5.83;;;4.30;99.90;;;;;;5453211;26;19995;-48
2024/04/23 06:14:57;;;;;;;12.43;6.00;;;4.50;99.90;;;;;;5453319;26;20409;-48
2024/04/23 06:17:28;;;;;;;9.50;6.13;;;4.60;99.90;;;;;;5446503;21;20015;-51
2024/04/23 06:19:54;;;;;;;12.13;6.27;;;4.60;99.90;;;;;;5452085;26;20703;-46
2024/04/23 06:22:25;;;;;;;12.57;6.37;;;4.80;99.90;;;;;;5453168;26;19998;-53
2024/04/23 06:24:53;;;;;;;10.33;6.57;;;4.90;99.90;;;;;;5453052;26;20459;-52
2024/04/23 06:27:29;;;;;;;12.37;6.93;;;5.00;99.90;;;;;;5453147;26;20002;-51
2024/04/23 06:29:56;;;;;;;15.57;7.20;;;5.10;99.90;;;;;;5452111;26;19999;-51
2024/04/23 06:32:28;;;;;;;11.43;6.70;;;5.20;99.90;;;;;;5452958;26;20002;-52
2024/04/23 06:34:54;;;;;;;10.00;6.40;;;5.30;99.90;;;;;;5449022;26;19995;-52
2024/04/23 06:37:20;;;;;;;10.50;6.10;;;5.40;99.90;;;;;;5450027;26;20002;-51
2024/04/23 06:39:46;;;;;;;10.17;4.90;;;5.60;99.90;;;;;;5451578;26;20447;-49
2024/04/23 06:42:12;;;;;;;10.53;5.20;;;5.90;99.90;;;;;;5453223;26;19991;-52
2024/04/23 06:44:38;;;;;;;8.00;4.77;;;6.10;99.90;;;;;;5452872;26;20063;-51
2024/04/23 06:47:05;;;;;;;10.00;4.93;;;6.20;99.90;;;;;;5452810;26;19991;-48
2024/04/23 06:49:31;;;;;;;7.50;4.67;;;6.30;99.90;;;;;;5452072;26;20002;-49
2024/04/23 06:51:57;;;;;;;9.77;4.73;;;6.40;99.90;;;;;;5452558;26;19995;-50
2024/04/23 06:54:23;;;;;;;7.47;4.33;;;6.50;99.90;;;;;;5453038;26;20007;-51
2024/04/23 06:56:49;;;;;;;9.13;4.10;;;6.60;99.90;;;;;;5452660;26;20071;-51
2024/04/23 06:59:15;;;;;;;6.97;4.07;;;6.90;99.90;;;;;;5450334;26;19990;-51
2024/04/23 07:01:42;;;;;;;9.43;4.50;;;6.90;99.90;;;;;;5452008;26;20014;-51
2024/04/23 07:04:09;;;;;;;8.80;4.53;;;7.00;99.90;;;;;;5450506;26;19990;-48
2024/04/23 07:06:36;;;;;;;7.57;4.07;;;7.10;99.90;;;;;;5452407;26;20064;-48
2024/04/23 07:09:03;;;;;;;6.37;3.47;;;7.10;99.90;;;;;;5451772;26;20327;-47
2024/04/23 07:11:29;;;;;;;5.90;3.43;;;7.20;99.90;;;;;;5452471;26;20068;-51
2024/04/23 07:13:55;;;;;;;4.97;3.40;;;7.30;99.90;;;;;;5452457;26;20007;-51
2024/04/23 07:16:21;;;;;;;7.87;4.00;;;7.40;99.90;;;;;;5452333;26;20577;-52
2024/04/23 07:18:47;;;;;;;8.00;4.00;;;7.50;99.90;;;;;;5451478;26;19990;-52
2024/04/23 07:21:14;;;;;;;8.63;3.70;;;7.60;99.90;;;;;;5452394;26;19994;-50
2024/04/23 07:23:40;;;;;;;8.50;3.63;;;7.70;99.90;;;;;;5452567;26;20010;-49
2024/04/23 07:26:06;;;;;;;6.70;3.70;;;8.00;99.90;;;;;;5452282;26;20396;-47
2024/04/23 07:28:32;;;;;;;7.50;3.47;;;8.10;99.90;;;;;;5450408;26;20439;-50
2024/04/23 07:31:00;;;;;;;6.13;3.20;;;8.00;99.90;;;;;;5451167;26;20036;-49
2024/04/23 07:33:26;;;;;;;6.07;3.40;;;8.10;99.90;;;;;;5452189;26;19990;-50
2024/04/23 07:35:52;;;;;;;5.43;2.83;;;8.30;99.90;;;;;;5452230;26;20001;-49
2024/04/23 07:38:18;;;;;;;6.17;3.73;;;8.30;99.90;;;;;;5450422;26;20067;-52
2024/04/23 07:40:46;;;;;;;9.63;3.73;;;8.40;99.90;;;;;;5451222;26;19994;-48
2024/04/23 07:43:14;;;;;;;6.63;3.30;;;8.30;99.90;;;;;;5452280;26;19995;-51
2024/04/23 07:45:41;;;;;;;6.60;3.30;;;8.40;99.90;;;;;;5450395;26;20036;-50
2024/04/23 07:48:07;;;;;;;8.83;3.13;;;8.50;99.90;;;;;;5452106;26;19990;-49
2024/04/23 07:50:33;;;;;;;5.97;3.23;;;8.50;99.90;;;;;;5451082;26;19991;-48
2024/04/23 07:53:06;;;;;;;8.47;3.40;;;8.60;99.90;;;;;;5450250;26;20007;-48
2024/04/23 07:55:32;;;;;;;6.07;3.37;;;8.90;99.90;;;;;;5451730;26;20006;-50
2024/04/23 07:57:58;;;;;;;6.53;3.47;;;8.90;99.90;;;;;;5451797;26;20079;-47
2024/04/23 08:00:27;;;;;;;6.10;3.17;;;8.90;99.90;;;;;;5450806;26;19995;-50
2024/04/23 08:02:54;;;;;;;5.85;3.15;;;8.70;99.90;;;;;;5451599;26;19994;-51
2024/04/23 08:05:24;;;;;;;6.77;4.13;;;8.70;99.90;;;;;;5451806;26;19999;-51
2024/04/23 08:07:51;;;;;;;6.77;3.90;;;8.50;99.90;;;;;;5451024;26;20342;-47
2024/04/23 08:10:17;;;;;;;7.50;3.73;;;8.60;99.90;;;;;;5450887;26;19999;-50
2024/04/23 08:12:48;;;;;;;5.53;3.50;;;8.70;99.90;;;;;;5451972;26;20531;-49
2024/04/23 08:15:14;;;;;;;11.70;3.87;;;8.90;99.90;;;;;;5451639;26;20071;-50
2024/04/23 08:17:43;;;;;;;5.00;3.10;;;8.90;99.90;;;;;;5471128;26;19998;-52
2024/04/23 08:20:14;;;;;;;8.95;3.83;;;8.80;99.90;;;;;;5486889;26;20477;-51
2024/04/23 08:22:40;;;;;;;5.40;3.00;;;8.60;99.90;;;;;;5487860;26;20066;-49
2024/04/23 08:25:09;;;;;;;8.27;3.50;;;8.40;99.90;;;;;;5487652;26;20405;-47
2024/04/23 08:27:36;;;;;;;10.35;4.18;;;8.30;99.90;;;;;;5455997;26;19998;-51
2024/04/23 08:30:03;;;;;;;9.93;4.73;;;8.20;99.90;;;;;;5487079;26;20383;-51
2024/04/23 08:32:29;;;;;;;7.40;4.07;;;8.20;99.90;;;;;;5487654;26;20006;-49
2024/04/23 08:34:55;;;;;;;5.67;3.33;;;8.00;99.90;;;;;;5487489;26;19998;-52
2024/04/23 08:37:21;;;;;;;5.87;3.27;;;7.90;99.90;;;;;;5487478;26;20303;-50
2024/04/23 08:39:47;;;;;;;6.70;3.87;;;7.80;99.90;;;;;;5486772;26;19999;-51
2024/04/23 08:42:15;;;;;;;8.87;3.70;;;7.80;99.90;;;;;;5487504;26;20010;-52
2024/04/23 08:44:43;;;;;;;7.00;3.90;;;7.70;99.90;;;;;;5487402;26;19998;-49
2024/04/23 08:47:11;;;;;;;8.17;4.10;;;7.70;99.90;;;;;;5487259;26;20187;-51
2024/04/23 08:49:38;;;;;;;7.60;3.70;;;7.90;99.90;;;;;;5486436;26;20443;-51
2024/04/23 08:52:07;;;;;;;7.13;3.50;;;8.00;99.90;;;;;;5487117;26;20055;-51
2024/04/23 08:54:33;;;;;;;7.77;3.83;;;8.10;99.80;;;;;;5487160;26;20405;-50
2024/04/23 08:57:00;;;;;;;9.23;3.83;;;8.10;99.90;;;;;;5487897;26;20000;-50
2024/04/23 08:59:29;;;;;;;9.17;4.30;;;8.10;99.90;;;;;;5490092;26;20527;-51
2024/04/23 09:01:59;;;;;;;;;;;8.10;99.90;;;;;;5459501;26;20373;-50
2024/04/23 09:04:26;;;;;;;8.60;4.37;;;8.20;99.90;;;;;;5490691;26;19931;-52
2024/04/23 09:06:53;;;;;;;7.20;4.20;;;8.30;99.90;;;;;;5490983;26;20043;-46
2024/04/23 09:09:21;;;;;;;8.63;3.17;;;8.30;99.90;;;;;;5490043;26;19994;-50
2024/04/23 09:11:50;;;;;;;7.10;3.63;;;8.40;99.90;;;;;;5490185;26;20027;-50
2024/04/23 09:14:16;;;;;;;;;;;8.50;99.90;;;;;;5491313;26;19998;-50
2024/04/23 09:16:42;;;;;;;9.30;3.43;;;8.90;98.90;;;;;;5490447;26;19992;-51
2024/04/23 09:19:09;;;;;;;5.73;3.23;;;9.30;98.10;;;;;;5489754;26;20069;-49
2024/04/23 09:21:38;;;;;;;9.17;3.43;;;9.70;96.00;;;;;;5490592;26;19998;-51
2024/04/23 09:24:04;;;;;;;6.68;3.40;;;9.80;96.00;;;;;;5490272;26;19994;-52
2024/04/23 09:26:31;;;;;;;6.97;3.80;;;10.20;94.60;;;;;;5490551;26;20482;-52
2024/04/23 09:28:58;;;;;;;6.23;3.77;;;10.20;96.40;;;;;;5489452;26;19991;-52
2024/04/23 09:31:24;;;;;;;8.10;4.10;;;10.20;98.50;;;;;;5458015;26;19998;-51
2024/04/23 09:34:02;;;;;;;7.80;4.20;;;10.20;97.70;;;;;;5490577;26;19998;-50
2024/04/23 09:36:28;;;;;;;8.93;3.60;;;10.20;96.20;;;;;;5490533;26;20113;-45
2024/04/23 09:38:56;;;;;;;8.17;4.00;;;10.30;95.50;;;;;;5489257;26;19990;-46
2024/04/23 09:41:26;;;;;;;6.67;3.47;;;10.50;94.80;;;;;;5490180;26;20017;-50
2024/04/23 09:44:02;;;;;;;3.70;2.20;;;10.50;94.70;;;;;;5490213;26;20028;-50
2024/04/23 09:46:32;;;;;;;5.80;2.63;;;10.50;94.10;;;;;;5458408;26;19998;-46
2024/04/23 09:49:01;;;;;;;6.63;2.33;;;10.50;94.50;;;;;;5489731;26;19990;-47
2024/04/23 09:51:30;;;;;;;5.57;2.70;;;10.40;92.80;;;;;;5490360;26;20047;-51
2024/04/23 09:54:00;;;;;;;7.22;3.88;;;10.30;93.30;;;;;;5490595;26;20511;-51
2024/04/23 09:56:26;;;;;;;8.57;3.57;;;10.10;94.70;;;;;;5457464;26;19990;-51
2024/04/23 09:58:53;;;;;;;5.43;2.90;;;10.10;95.00;;;;;;5489298;26;20001;-51
2024/04/23 10:01:25;;;;;;;4.87;2.40;;;10.00;94.40;;;;;;5489836;26;20006;-50
2024/04/23 10:03:55;;;;;;;4.73;2.60;;;10.20;92.20;;;;;;5489642;26;20005;-51
2024/04/23 10:06:23;;;;;;;5.57;2.90;;;10.10;93.60;;;;;;5489867;26;19998;-51
2024/04/23 10:09:01;;;;;;;5.17;3.00;;;10.00;94.80;;;;;;5487901;26;20443;-51
2024/04/23 10:11:35;;;;;;;8.43;2.87;;;10.10;92.70;;;;;;5490071;26;19998;-51
2024/04/23 10:14:34;;;;;;;6.37;3.47;;;10.10;92.30;;;;;;5457815;26;19991;-51
2024/04/23 10:17:11;;;;;;;7.17;3.00;;;10.10;93.80;;;;;;5489705;26;20067;-51
2024/04/23 10:19:38;;;;;;;7.10;3.00;;;10.10;94.00;;;;;;5488819;26;19994;-51
2024/04/23 10:22:05;;;;;;;5.43;3.00;;;10.40;95.10;;;;;;5489322;26;20039;-50
2024/04/23 10:24:31;;;;;;;5.83;2.67;;;10.90;92.20;;;;;;5488127;26;20059;-49
2024/04/23 10:26:58;;;;;;;6.20;2.93;;;11.30;92.20;;;;;;5489463;26;19990;-50
2024/04/23 10:29:26;;;;;;;5.25;2.60;;;11.70;93.30;;;;;;5456440;26;19990;-50
2024/04/23 10:31:53;;;;;;;5.53;2.63;;;12.00;91.40;;;;;;5489353;26;19994;-53
2024/04/23 10:34:20;;;;;;;5.53;2.67;;;12.50;91.60;;;;;;5489232;26;20323;-50
2024/04/23 10:36:49;;;;;;;6.82;2.95;;;12.90;91.20;;;;;;5489586;26;20511;-49
2024/04/23 10:39:21;;;;;;;4.13;2.67;;;13.00;90.90;;;;;;5488453;26;20005;-50
2024/04/23 10:41:48;;;;;;;4.43;2.85;;;13.30;86.80;;;;;;5489313;26;19994;-51
2024/04/23 10:44:16;;;;;;;6.50;2.63;;;13.60;89.30;;;;;;5489336;26;19994;-51
2024/04/23 10:46:42;;;;;;;4.00;2.38;;;13.80;86.70;;;;;;5489257;26;20041;-51
2024/04/23 10:49:16;;;;;;;4.93;2.83;;;14.10;84.70;;;;;;5487317;26;20059;-51
2024/04/23 10:51:47;;;;;;;8.48;3.08;;;14.50;83.20;;;;;;5489296;26;20002;-51
2024/04/23 10:54:20;;;;;;;5.82;2.88;;;14.50;81.60;;;;;;5456950;26;20034;-49
2024/04/23 10:57:01;;;;;;;6.47;2.83;;;14.70;79.50;;;;;;5456838;26;20336;-51
2024/04/23 10:59:31;;;;;;;5.15;3.40;;;14.60;82.80;;;;;;5487273;26;19997;-50
2024/04/23 11:01:58;;;;;;;5.93;3.40;;;14.80;84.50;;;;;;5488823;26;20006;-50
2024/04/23 11:04:39;;;;;;;6.20;3.28;;;14.50;79.70;;;;;;5487414;26;20062;-51
2024/04/23 11:07:12;;;;;;;5.85;2.95;;;14.40;81.20;;;;;;5488661;26;20363;-50
2024/04/23 11:09:48;;;;;;;5.10;2.90;;;14.30;79.30;;;;;;5487432;26;19998;-50
2024/04/23 11:12:17;;;;;;;7.15;4.30;;;14.40;83.20;;;;;;5488880;26;20005;-51
2024/04/23 11:14:44;;;;;;;5.05;2.90;;;14.30;81.20;;;;;;5488675;26;20006;-51
2024/04/23 11:17:10;;;;;;;6.60;3.53;;;14.00;79.00;;;;;;5488886;26;20733;-50
2024/04/23 11:19:51;;;;;;;6.47;3.20;;;13.60;82.00;;;;;;5455903;26;19994;-52
2024/04/23 11:22:23;;;;;;;5.00;2.72;;;13.40;83.60;;;;;;5488944;26;19993;-52
2024/04/23 11:25:02;;;;;;;5.97;3.15;;;13.20;80.80;;;;;;5488691;26;20071;-50
2024/04/23 11:27:29;;;;;;;6.38;3.35;;;13.00;77.30;;;;;;5488934;26;20006;-52
2024/04/23 11:29:55;;;;;;;4.90;3.30;;;12.50;79.90;;;;;;5487649;26;19994;-50
2024/04/23 11:32:21;;;;;;;5.57;3.60;;;12.30;82.10;;;;;;5487563;26;20002;-51
2024/04/23 11:34:48;;;;;;;6.63;3.38;;;12.00;81.20;;;;;;5488456;26;20001;-48
2024/04/23 11:37:22;;;;;;;4.45;3.00;;;11.90;80.20;;;;;;5487705;26;20002;-47
2024/04/23 11:39:57;;;;;;;5.97;3.05;;;11.60;78.80;;;;;;5487639;26;20002;-49
2024/04/23 11:42:27;;;;;;;5.15;2.80;;;11.40;80.10;;;;;;5488517;26;20063;-49
2024/04/23 11:45:01;;;;;;;6.57;3.10;;;11.00;80.70;;;;;;5488282;26;20038;-47
2024/04/23 11:47:28;;;;;;;4.68;2.92;;;10.80;83.00;;;;;;5488520;26;19994;-47
2024/04/23 11:49:55;;;;;;;5.15;3.30;;;10.70;83.00;;;;;;5487562;26;20018;-48
2024/04/23 11:52:23;;;;;;;6.75;3.72;;;10.70;87.70;;;;;;5488369;26;20006;-47
2024/04/23 11:54:50;;;;;;;5.93;3.65;;;11.10;84.20;;;;;;5488566;26;20006;-47
2024/04/23 11:57:17;;;;;;;6.57;3.70;;;11.60;82.40;;;;;;5487184;26;20435;-50
2024/04/23 11:59:43;;;;;;;5.67;3.40;;;11.90;84.70;;;;;;5487073;26;19994;-47
2024/04/23 12:02:10;;;;;;;7.82;3.80;;;12.20;84.60;;;;;;5487852;26;20342;-49
2024/04/23 12:04:37;;;;;;;7.20;4.22;;;12.70;84.40;;;;;;5487966;26;20002;-47
2024/04/23 12:07:04;;;;;;;8.75;3.75;;;12.80;80.50;;;;;;5487960;26;20435;-49
2024/04/23 12:09:33;;;;;;;5.72;3.40;;;12.90;81.90;;;;;;5487064;26;20001;-47
2024/04/23 12:12:00;;;;;;;7.70;4.30;;;13.00;86.10;;;;;;5487894;26;19998;-49
2024/04/23 12:14:30;;;;;;;8.45;4.70;;;12.80;85.50;;;;;;5487938;26;20066;-50
2024/04/23 12:16:56;;;;;;;9.27;4.88;;;12.80;84.30;;;;;;5488724;21;20006;-51
2024/04/23 12:19:22;;;;;;;8.07;3.92;;;12.80;83.80;;;;;;5379155;26;20430;-52
2024/04/23 12:21:49;;;;;;;7.88;4.13;;;12.90;84.00;;;;;;5379627;26;20069;-53
2024/04/23 12:24:17;;;;;;;7.10;4.05;;;13.10;81.60;;;;;;5379703;26;20066;-53
2024/04/23 12:26:46;;;;;;;6.00;3.85;;;13.20;84.10;;;;;;5348625;26;19996;-53
2024/04/23 12:29:12;;;;;;;;;;;13.20;81.70;;;;;;5379371;26;20074;-53
2024/04/23 12:31:38;;;;;;;6.40;3.95;;;13.10;82.00;;;;;;5379861;26;20288;-53
2024/04/23 12:34:04;;;;;;;10.80;3.90;;;12.90;84.70;;;;;;5383019;26;19996;-53
2024/04/23 12:36:30;;;;;;;7.95;4.00;;;12.70;86.80;;;;;;5381859;26;20007;-53
2024/04/23 12:38:56;;;;;;;9.85;4.35;;;12.60;83.00;;;;;;5350694;26;20015;-53
2024/04/23 12:41:25;;;;;;;5.65;3.47;;;12.60;85.40;;;;;;5382613;26;19996;-53
2024/04/23 12:43:51;;;;;;;6.78;3.97;;;12.50;82.20;;;;;;5382091;26;20093;-53
2024/04/23 12:46:19;;;;;;;4.65;3.30;;;12.50;81.60;;;;;;5381157;26;20395;-52
2024/04/23 12:48:49;;;;;;;7.45;3.83;;;12.60;86.00;;;;;;5351062;26;19992;-49
2024/04/23 12:51:15;;;;;;;7.78;3.40;;;12.70;81.90;;;;;;5383256;26;20000;-52
2024/04/23 12:53:41;;;;;;;5.25;3.63;;;12.90;81.60;;;;;;5382641;26;20628;-52
2024/04/23 12:56:07;;;;;;;4.82;2.85;;;13.20;85.20;;;;;;5383018;26;20445;-49
2024/04/23 12:58:36;;;;;;;5.28;2.95;;;13.10;83.40;;;;;;5382870;26;19996;-49
2024/04/23 13:01:02;;;;;;;4.78;3.13;;;13.20;82.50;;;;;;5382736;26;20008;-52